SHEC weather

Edificio Bank Boston Heliport
Santiago, Santiago Metropolitan Region, Chile

Public forecast

Using degrees Celsius for public forecast. Weather courtesy of forecast.io.

METAR (pilot weather report)

Report is more than 2 hours old.

Closest report is Eulogio Sánchez Airport, 3.4 nm (6.4 km) SE. Retrieved 2019/07/22 22:00 UTC (3 hours ago):

SCTB 222200Z 23005KT 190V270 9999 BKN060 09/M03 Q1020

TAF (pilot weather forecast)

Forecast is more than 12 hours old.

Closest forecast is Comodoro Arturo Merino Benítez International Airport, 9.8 nm (18.2 km) W. Retrieved 2019/07/22 00:00 UTC (1 day ago):

TAF SCEL 222207Z 2300/2324 15004KT 8000 NSC TX15/2319Z TNM01/2311Z BECMG 2306/2308 5000 HZ NSC TEMPO 2310/2313 VRB02KT 0800 BCFG SCT002 BECMG 2316/2318 18008KT 7000 NSW NSC BECMG 2319/2321 CAVOK